TXKF/BDA METAR and TAF weather

Enter ICAO airport designator
Station Type Date Time Source
TXKF METAR 2021/05/14 22:55 UTC NOAA

TXKF 142255Z 06015KT 9999 SCT014 BKN034 OVC220 20/17 Q1018


Station Type Date Time Source
TXKF Decoded METAR 2021/05/14 22:55 UTC NOAA

Bermuda, Bermuda (TXKF) 32-22N 064-41W
May 14, 2021 - 06:55 PM EDT / 2021.05.14 2255 UTC
Wind: from the ENE (060 degrees) at 17 MPH (15 KT):0
Visibility: greater than 7 mile(s):0
Sky conditions: overcast
Temperature: 68 F (20 C)
Dew Point: 62 F (17 C)
Relative Humidity: 82%
Pressure (altimeter): 30.06 in. Hg (1018 hPa)
ob: TXKF 142255Z 06015KT 9999 SCT014 BKN034 OVC220 20/17 Q1018
cycle: 23

Station Type Date Time Source
TXKF TAF 2021/05/14 20:47 UTC NOAA

TAF
AMD TXKF 142033Z 1420/1518 05018KT 9999 SCT014 BKN150
TEMPO 1420/1509 BKN014 PROB30
TEMPO 1423/1509 4000 SHRA SCT008 BKN012

Example: see airport list